createdAt,value
2022-10-14T00:02:20.744Z,16.10
2022-10-14T00:04:47.643Z,16.10
2022-10-14T00:07:14.618Z,16.10
2022-10-14T00:09:42.533Z,16.00
2022-10-14T00:12:09.486Z,15.90
2022-10-14T00:14:36.346Z,15.90
2022-10-14T00:17:03.197Z,15.90
2022-10-14T00:19:30.048Z,15.90
2022-10-14T00:21:56.914Z,15.90
2022-10-14T00:24:23.964Z,15.80
2022-10-14T00:26:50.773Z,15.80
2022-10-14T00:29:19.067Z,15.80
2022-10-14T00:31:46.570Z,15.80
2022-10-14T00:34:16.177Z,15.80
2022-10-14T00:36:43.463Z,15.80
2022-10-14T00:39:10.860Z,15.80
2022-10-14T00:41:38.122Z,15.80
2022-10-14T00:44:07.271Z,15.80
2022-10-14T00:46:36.146Z,15.80
2022-10-14T00:49:06.343Z,15.80
2022-10-14T00:51:34.053Z,15.80
2022-10-14T00:54:00.886Z,15.80
2022-10-14T00:56:29.253Z,15.70
2022-10-14T00:58:56.751Z,15.70
2022-10-14T01:01:23.651Z,15.60
2022-10-14T01:03:50.697Z,15.60
2022-10-14T01:06:23.378Z,15.70
2022-10-14T01:09:00.945Z,15.60
2022-10-14T01:11:42.816Z,15.60
2022-10-14T01:14:28.418Z,15.60
2022-10-14T01:16:59.359Z,15.60
2022-10-14T01:19:46.164Z,15.60
2022-10-14T01:22:22.511Z,15.60
2022-10-14T01:24:55.283Z,15.60
2022-10-14T01:27:22.074Z,15.60
2022-10-14T01:30:07.097Z,15.60
2022-10-14T01:32:52.906Z,15.60
2022-10-14T01:35:23.778Z,15.60
2022-10-14T01:38:01.504Z,15.70
2022-10-14T01:40:43.310Z,15.70
2022-10-14T01:43:11.268Z,15.70
2022-10-14T01:45:39.317Z,15.70
2022-10-14T01:48:07.246Z,15.70
2022-10-14T01:50:35.438Z,15.70
2022-10-14T01:53:04.195Z,15.60
2022-10-14T01:55:33.291Z,15.60
2022-10-14T01:58:00.616Z,15.60
2022-10-14T02:00:27.571Z,15.60
2022-10-14T02:02:54.467Z,15.60
2022-10-14T02:05:27.531Z,15.60
2022-10-14T02:08:12.562Z,15.60
2022-10-14T02:10:59.543Z,15.60
2022-10-14T02:13:47.501Z,15.60
2022-10-14T02:16:15.101Z,15.50
2022-10-14T02:18:48.863Z,15.50
2022-10-14T02:21:28.776Z,15.60
2022-10-14T02:24:02.691Z,15.60
2022-10-14T02:26:30.321Z,15.50
2022-10-14T02:28:57.677Z,15.50
2022-10-14T02:31:25.162Z,15.50
2022-10-14T02:33:53.715Z,15.50
2022-10-14T02:36:21.985Z,15.50
2022-10-14T02:38:49.685Z,15.50
2022-10-14T02:41:18.785Z,15.50
2022-10-14T02:43:45.946Z,15.50
2022-10-14T02:46:12.948Z,15.50
2022-10-14T02:48:39.776Z,15.50
2022-10-14T02:51:06.659Z,15.50
2022-10-14T02:53:33.480Z,15.50
2022-10-14T02:56:00.335Z,15.50
2022-10-14T02:58:27.149Z,15.50
2022-10-14T03:00:54.005Z,15.40
2022-10-14T03:03:22.061Z,15.40
2022-10-14T03:05:48.935Z,15.40
2022-10-14T03:08:15.843Z,15.40
2022-10-14T03:10:45.734Z,15.50
2022-10-14T03:13:12.611Z,15.40
2022-10-14T03:15:39.583Z,15.40
2022-10-14T03:18:06.522Z,15.40
2022-10-14T03:20:33.444Z,15.40
2022-10-14T03:23:00.271Z,15.40
2022-10-14T03:25:27.977Z,15.40
2022-10-14T03:27:54.849Z,15.40
2022-10-14T03:30:21.628Z,15.50
2022-10-14T03:32:48.669Z,15.50
2022-10-14T03:35:15.922Z,15.50
2022-10-14T03:37:42.752Z,15.50
2022-10-14T03:40:10.170Z,15.50
2022-10-14T03:42:37.114Z,15.50
2022-10-14T03:45:04.196Z,15.50
2022-10-14T03:47:31.136Z,15.50
2022-10-14T03:49:58.155Z,15.50
2022-10-14T03:52:24.986Z,15.50
2022-10-14T03:54:51.893Z,15.50
2022-10-14T03:57:18.738Z,15.40
2022-10-14T03:59:45.525Z,15.50
2022-10-14T04:02:12.417Z,15.50
2022-10-14T04:04:39.496Z,15.60
2022-10-14T04:07:06.332Z,15.60
2022-10-14T04:09:33.345Z,15.60
2022-10-14T04:12:00.262Z,15.60
2022-10-14T04:14:27.088Z,15.50
2022-10-14T04:16:53.921Z,15.50
2022-10-14T04:19:20.830Z,15.50
2022-10-14T04:21:47.635Z,15.50
2022-10-14T04:24:15.557Z,15.50
2022-10-14T04:26:42.605Z,15.50
2022-10-14T04:29:09.434Z,15.50
2022-10-14T04:31:36.294Z,15.50
2022-10-14T04:34:03.200Z,15.50
2022-10-14T04:36:30.025Z,15.50
2022-10-14T04:38:56.861Z,15.50
2022-10-14T04:41:23.783Z,15.50
2022-10-14T04:43:50.670Z,15.50
2022-10-14T04:46:17.710Z,15.50
2022-10-14T04:48:44.538Z,15.40
2022-10-14T04:51:11.342Z,15.50
2022-10-14T04:53:38.213Z,15.50
2022-10-14T04:56:05.227Z,15.50
2022-10-14T04:58:32.133Z,15.50
2022-10-14T05:00:59.008Z,15.50
2022-10-14T05:03:25.894Z,15.50
2022-10-14T05:05:52.763Z,15.50
2022-10-14T05:08:19.578Z,15.50
2022-10-14T05:10:48.074Z,15.50
2022-10-14T05:13:15.039Z,15.50
2022-10-14T05:15:41.877Z,15.50
2022-10-14T05:18:11.039Z,15.50
2022-10-14T05:20:38.829Z,15.50
2022-10-14T05:23:06.332Z,15.40
2022-10-14T05:25:33.454Z,15.40
2022-10-14T05:28:00.311Z,15.50
2022-10-14T05:30:32.210Z,15.50
2022-10-14T05:33:01.468Z,15.40
2022-10-14T05:35:53.618Z,15.40
2022-10-14T05:38:15.534Z,15.50
2022-10-14T05:40:42.922Z,15.50
2022-10-14T05:43:09.808Z,15.50
2022-10-14T05:45:36.633Z,15.50
2022-10-14T05:48:03.555Z,15.50
2022-10-14T05:50:30.421Z,15.60
2022-10-14T05:52:57.332Z,15.60
2022-10-14T05:55:24.174Z,15.60
2022-10-14T05:57:55.299Z,15.60
2022-10-14T06:00:25.763Z,15.60
2022-10-14T06:02:52.955Z,15.60
2022-10-14T06:05:19.946Z,15.60
2022-10-14T06:07:46.850Z,15.60
2022-10-14T06:10:13.707Z,15.60
2022-10-14T06:12:40.574Z,15.60
2022-10-14T06:15:07.763Z,15.50
2022-10-14T06:17:34.586Z,15.50
2022-10-14T06:20:01.448Z,15.50
2022-10-14T06:22:28.376Z,15.50
2022-10-14T06:24:55.184Z,15.50
2022-10-14T06:27:22.038Z,15.50
2022-10-14T06:29:48.963Z,15.50
2022-10-14T06:32:15.819Z,15.50
2022-10-14T06:34:42.656Z,15.60
2022-10-14T06:37:09.542Z,15.60
2022-10-14T06:39:36.434Z,15.60
2022-10-14T06:42:03.483Z,15.60
2022-10-14T06:44:30.310Z,15.60
2022-10-14T06:46:57.143Z,15.60
2022-10-14T06:49:24.064Z,15.60
2022-10-14T06:51:50.860Z,15.60
2022-10-14T06:54:17.735Z,15.60
2022-10-14T06:56:44.544Z,15.60
2022-10-14T06:59:11.565Z,15.70
2022-10-14T07:01:39.589Z,15.70
2022-10-14T07:04:06.538Z,15.60
2022-10-14T07:06:33.399Z,15.60
2022-10-14T07:09:00.539Z,15.70
2022-10-14T07:11:27.340Z,15.70
2022-10-14T07:13:55.166Z,15.70
2022-10-14T07:16:22.042Z,15.70
2022-10-14T07:18:49.470Z,15.70
2022-10-14T07:21:16.363Z,15.70
2022-10-14T07:23:43.204Z,15.70
2022-10-14T07:26:10.173Z,15.70
2022-10-14T07:28:37.228Z,15.70
2022-10-14T07:31:05.930Z,15.80
2022-10-14T07:33:33.151Z,15.80
2022-10-14T07:36:04.096Z,15.80
2022-10-14T07:38:31.498Z,15.80
2022-10-14T07:40:58.330Z,15.80
2022-10-14T07:43:25.167Z,15.90
2022-10-14T07:45:52.087Z,15.90
2022-10-14T07:48:27.310Z,15.90
2022-10-14T07:51:06.542Z,16.00
2022-10-14T07:53:33.756Z,16.00
2022-10-14T07:56:00.895Z,16.00
2022-10-14T07:58:29.257Z,16.10
2022-10-14T08:00:56.825Z,16.10
2022-10-14T08:03:24.477Z,16.10
2022-10-14T08:05:51.410Z,16.20
2022-10-14T08:08:18.623Z,16.20
2022-10-14T08:10:45.554Z,16.20
2022-10-14T08:13:12.396Z,16.20
2022-10-14T08:15:41.595Z,16.20
2022-10-14T08:18:09.490Z,16.20
2022-10-14T08:20:36.588Z,16.20
2022-10-14T08:23:03.666Z,16.30
2022-10-14T08:25:30.972Z,16.30
2022-10-14T08:27:58.875Z,16.30
2022-10-14T08:30:26.047Z,16.30
2022-10-14T08:32:53.906Z,16.30
2022-10-14T08:35:20.959Z,16.30
2022-10-14T08:38:00.742Z,16.40
2022-10-14T08:40:33.842Z,16.40
2022-10-14T08:43:22.036Z,16.40
2022-10-14T08:45:52.271Z,16.50
2022-10-14T08:48:21.947Z,16.50
2022-10-14T08:50:51.212Z,16.60
2022-10-14T08:53:20.295Z,16.60
2022-10-14T08:55:55.755Z,16.60
2022-10-14T08:58:29.078Z,16.60
2022-10-14T09:00:56.593Z,16.60
2022-10-14T09:03:24.707Z,16.70
2022-10-14T09:05:56.183Z,16.70
2022-10-14T09:08:28.513Z,16.70
2022-10-14T09:10:55.365Z,16.80
2022-10-14T09:13:35.234Z,16.80
2022-10-14T09:16:08.424Z,16.90
2022-10-14T09:18:44.479Z,16.90
2022-10-14T09:21:33.788Z,16.90
2022-10-14T09:24:20.748Z,16.90
2022-10-14T09:26:49.312Z,16.90
2022-10-14T09:29:22.003Z,16.90
2022-10-14T09:31:49.007Z,17.00
2022-10-14T09:34:27.800Z,16.90
2022-10-14T09:36:54.715Z,17.00
2022-10-14T09:39:21.553Z,17.00
2022-10-14T09:41:50.272Z,17.00
2022-10-14T09:44:21.613Z,17.10
2022-10-14T09:46:49.896Z,17.10
2022-10-14T09:49:18.630Z,17.10
2022-10-14T09:51:45.661Z,17.10
2022-10-14T09:54:22.297Z,17.10
2022-10-14T09:56:49.713Z,17.20
2022-10-14T09:59:21.522Z,17.20
2022-10-14T10:01:49.717Z,17.20
2022-10-14T10:04:28.848Z,17.30
2022-10-14T10:06:55.721Z,17.30
2022-10-14T10:09:23.051Z,17.30
2022-10-14T10:11:49.850Z,17.30
2022-10-14T10:14:20.999Z,17.30
2022-10-14T10:16:48.405Z,17.40
2022-10-14T10:19:27.959Z,17.40
2022-10-14T10:22:14.781Z,17.40
2022-10-14T10:24:41.711Z,17.40
2022-10-14T10:27:25.557Z,17.40
2022-10-14T10:29:56.403Z,17.50
2022-10-14T10:32:34.893Z,17.50
2022-10-14T10:35:04.906Z,17.50
2022-10-14T10:37:33.614Z,17.50
2022-10-14T10:40:09.452Z,17.50
2022-10-14T10:42:56.494Z,17.60
2022-10-14T10:45:34.018Z,17.60
2022-10-14T10:48:03.302Z,17.60
2022-10-14T10:50:33.249Z,17.60
2022-10-14T10:53:16.579Z,17.60
2022-10-14T10:58:52.455Z,17.60
2022-10-14T11:01:20.839Z,17.70
2022-10-14T11:04:06.152Z,17.60
2022-10-14T11:06:51.597Z,17.60
2022-10-14T11:09:57.342Z,17.70
2022-10-14T11:12:42.823Z,17.70
2022-10-14T11:18:00.731Z,17.70
2022-10-14T11:20:37.128Z,17.70
2022-10-14T11:23:16.391Z,17.70
2022-10-14T11:25:49.379Z,17.70
2022-10-14T11:28:45.847Z,17.70
2022-10-14T11:31:30.873Z,17.70
2022-10-14T11:34:15.975Z,17.70
2022-10-14T11:36:45.658Z,17.70
2022-10-14T11:39:18.299Z,17.70
2022-10-14T11:41:47.868Z,17.60
2022-10-14T11:44:33.390Z,17.60
2022-10-14T11:47:04.675Z,17.60
2022-10-14T11:49:43.048Z,17.70
2022-10-14T11:52:15.003Z,17.70
2022-10-14T11:54:47.381Z,17.70
2022-10-14T11:57:14.148Z,17.70
2022-10-14T11:59:46.953Z,17.70
2022-10-14T12:02:22.006Z,17.70
2022-10-14T12:04:58.006Z,17.80
2022-10-14T12:07:28.821Z,17.80
2022-10-14T12:09:59.965Z,17.90
2022-10-14T12:12:28.451Z,17.90
2022-10-14T12:14:57.926Z,17.90
2022-10-14T12:17:30.628Z,18.00
2022-10-14T12:19:58.900Z,18.10
2022-10-14T12:22:28.092Z,18.20
2022-10-14T12:24:56.315Z,18.10
2022-10-14T12:27:25.227Z,18.20
2022-10-14T12:29:53.123Z,18.20
2022-10-14T12:32:22.223Z,18.30
2022-10-14T12:34:53.920Z,18.30
2022-10-14T12:37:31.910Z,18.30
2022-10-14T12:40:02.237Z,18.20
2022-10-14T12:42:34.837Z,18.30
2022-10-14T12:45:14.636Z,18.20
2022-10-14T12:47:41.887Z,18.30
2022-10-14T12:50:14.677Z,18.30
2022-10-14T12:52:45.168Z,18.30
2022-10-14T12:55:16.758Z,18.40
2022-10-14T12:57:43.608Z,18.40
2022-10-14T13:00:22.505Z,18.40
2022-10-14T13:02:54.486Z,18.50
2022-10-14T13:05:31.300Z,18.60
2022-10-14T13:08:30.458Z,18.60
2022-10-14T13:11:00.170Z,18.70
2022-10-14T13:13:39.103Z,18.80
2022-10-14T13:16:06.632Z,18.90
2022-10-14T13:18:35.469Z,18.90
2022-10-14T13:21:03.082Z,19.00
2022-10-14T13:23:36.219Z,19.00
2022-10-14T13:26:08.980Z,19.00
2022-10-14T13:28:42.937Z,19.00
2022-10-14T13:31:15.570Z,19.10
2022-10-14T13:34:05.464Z,19.10
2022-10-14T13:36:37.286Z,19.10
2022-10-14T13:39:04.164Z,19.10
2022-10-14T13:41:31.699Z,19.10
2022-10-14T13:43:59.919Z,19.10
2022-10-14T13:46:26.694Z,19.10
2022-10-14T13:48:56.832Z,19.00
2022-10-14T13:51:43.476Z,19.00
2022-10-14T13:54:24.011Z,18.90
2022-10-14T13:57:38.295Z,18.80
2022-10-14T14:00:22.500Z,18.80
2022-10-14T14:02:34.539Z,18.80
2022-10-14T14:05:01.660Z,18.80
2022-10-14T14:08:21.650Z,18.80
2022-10-14T14:10:23.983Z,18.70
2022-10-14T14:12:51.134Z,18.80
2022-10-14T14:15:25.418Z,18.70
2022-10-14T14:17:52.808Z,18.70
2022-10-14T14:20:21.720Z,18.70
2022-10-14T14:22:48.744Z,18.60
2022-10-14T14:25:33.883Z,18.60
2022-10-14T14:28:02.410Z,18.70
2022-10-14T14:30:33.126Z,18.60
2022-10-14T14:33:01.686Z,18.70
2022-10-14T14:35:29.043Z,18.70
2022-10-14T14:37:56.731Z,18.60
2022-10-14T14:40:24.919Z,18.60
2022-10-14T14:42:53.380Z,18.70
2022-10-14T14:45:25.663Z,18.60
2022-10-14T14:47:53.813Z,18.60
2022-10-14T14:50:30.582Z,18.60
2022-10-14T14:53:01.014Z,18.60
2022-10-14T14:55:37.201Z,18.50
2022-10-14T14:58:05.529Z,18.50
2022-10-14T15:00:32.863Z,18.50
2022-10-14T15:03:01.106Z,18.60
2022-10-14T15:05:28.053Z,18.60
2022-10-14T15:07:56.214Z,18.60
2022-10-14T15:10:28.153Z,18.60
2022-10-14T15:12:56.885Z,18.50
2022-10-14T15:15:25.571Z,18.60
2022-10-14T15:18:05.713Z,18.50
2022-10-14T15:20:36.519Z,18.50
2022-10-14T15:23:23.289Z,18.40
2022-10-14T15:25:57.113Z,18.50
2022-10-14T15:28:33.700Z,18.40
2022-10-14T15:31:04.677Z,18.40
2022-10-14T15:33:33.240Z,18.40
2022-10-14T15:36:01.978Z,18.40
2022-10-14T15:38:29.432Z,18.40
2022-10-14T15:40:56.410Z,18.40
2022-10-14T15:43:24.304Z,18.30
2022-10-14T15:46:12.548Z,18.30
2022-10-14T15:48:53.015Z,18.30
2022-10-14T15:51:20.880Z,18.30
2022-10-14T15:53:49.230Z,18.30
2022-10-14T15:56:17.399Z,18.30
2022-10-14T15:58:44.244Z,18.30
2022-10-14T16:01:15.632Z,18.40
2022-10-14T16:03:43.088Z,18.40
2022-10-14T16:06:10.192Z,18.40
2022-10-14T16:08:38.222Z,18.50
2022-10-14T16:11:06.193Z,18.50
2022-10-14T16:13:33.181Z,18.50
2022-10-14T16:16:01.503Z,18.50
2022-10-14T16:18:29.487Z,18.50
2022-10-14T16:20:56.339Z,18.40
2022-10-14T16:23:29.681Z,18.40
2022-10-14T16:26:00.441Z,18.40
2022-10-14T16:28:27.341Z,18.40
2022-10-14T16:30:54.255Z,18.30
2022-10-14T16:33:22.373Z,18.30
2022-10-14T16:35:51.930Z,18.20
2022-10-14T16:38:19.083Z,18.20
2022-10-14T16:40:45.956Z,18.20
2022-10-14T16:43:12.887Z,18.20
2022-10-14T16:45:39.707Z,18.10
2022-10-14T16:48:06.647Z,18.10
2022-10-14T16:50:33.578Z,18.00
2022-10-14T16:53:19.000Z,18.00
2022-10-14T16:55:45.835Z,17.90
2022-10-14T16:58:12.682Z,17.90
2022-10-14T17:00:39.502Z,17.80
2022-10-14T17:03:06.395Z,17.70
2022-10-14T17:05:33.235Z,17.70
2022-10-14T17:08:00.186Z,17.70
2022-10-14T17:10:27.066Z,17.70
2022-10-14T17:12:54.846Z,17.60
2022-10-14T17:15:22.497Z,17.60
2022-10-14T17:17:49.667Z,17.50
2022-10-14T17:20:19.070Z,17.40
2022-10-14T17:22:46.324Z,17.20
2022-10-14T17:25:13.136Z,17.10
2022-10-14T17:27:39.945Z,17.10
2022-10-14T17:30:07.184Z,17.10
2022-10-14T17:32:34.109Z,17.00
2022-10-14T17:35:01.042Z,17.00
2022-10-14T17:37:30.890Z,17.00
2022-10-14T17:39:57.852Z,16.90
2022-10-14T17:42:24.952Z,16.90
2022-10-14T17:44:52.337Z,16.80
2022-10-14T17:47:19.552Z,16.70
2022-10-14T17:49:46.675Z,16.70
2022-10-14T17:52:13.477Z,16.60
2022-10-14T17:54:40.328Z,16.60
2022-10-14T17:57:07.228Z,16.40
2022-10-14T17:59:35.059Z,16.40
2022-10-14T18:02:03.379Z,16.30
2022-10-14T18:04:30.753Z,16.30
2022-10-14T18:06:58.737Z,16.20
2022-10-14T18:09:25.668Z,16.20
2022-10-14T18:12:09.625Z,16.20
2022-10-14T18:14:37.377Z,16.10
2022-10-14T18:17:05.375Z,16.10
2022-10-14T18:19:32.515Z,16.10
2022-10-14T18:21:59.435Z,16.00
2022-10-14T18:24:26.447Z,16.00
2022-10-14T18:26:53.503Z,16.00
2022-10-14T18:29:20.343Z,16.00
2022-10-14T18:31:49.061Z,16.00
2022-10-14T18:34:16.175Z,15.90
2022-10-14T18:36:43.147Z,15.90
2022-10-14T18:39:11.160Z,15.90
2022-10-14T18:41:38.253Z,15.80
2022-10-14T18:44:05.710Z,15.80
2022-10-14T18:46:34.177Z,15.70
2022-10-14T18:49:01.560Z,15.70
2022-10-14T18:51:29.987Z,15.70
2022-10-14T18:53:58.400Z,15.60
2022-10-14T18:56:26.794Z,15.60
2022-10-14T18:58:55.495Z,15.50
2022-10-14T19:01:23.312Z,15.50
2022-10-14T19:03:53.131Z,15.40
2022-10-14T19:06:21.300Z,15.40
2022-10-14T19:08:48.521Z,15.30
2022-10-14T19:11:22.591Z,15.30
2022-10-14T19:13:50.372Z,15.30
2022-10-14T19:16:22.085Z,15.20
2022-10-14T19:18:53.535Z,15.20
2022-10-14T19:21:23.378Z,15.20
2022-10-14T19:23:50.259Z,15.20
2022-10-14T19:26:18.452Z,15.10
2022-10-14T19:28:45.356Z,15.10
2022-10-14T19:31:14.274Z,15.10
2022-10-14T19:33:42.206Z,15.00
2022-10-14T19:36:09.492Z,15.00
2022-10-14T19:38:37.717Z,15.00
2022-10-14T19:41:05.869Z,15.00
2022-10-14T19:43:33.026Z,14.90
2022-10-14T19:46:02.699Z,14.90
2022-10-14T19:48:32.435Z,15.00
2022-10-14T19:51:04.511Z,14.90
2022-10-14T19:53:33.995Z,14.90
2022-10-14T19:56:04.889Z,14.90
2022-10-14T19:58:32.171Z,14.90
2022-10-14T20:00:59.441Z,14.90
2022-10-14T20:03:27.031Z,14.90
2022-10-14T20:06:00.320Z,14.90
2022-10-14T20:08:27.219Z,14.90
2022-10-14T20:10:54.162Z,14.90
2022-10-14T20:13:21.028Z,14.90
2022-10-14T20:15:57.995Z,15.00
2022-10-14T20:18:24.965Z,15.00
2022-10-14T20:20:52.070Z,15.00
2022-10-14T20:23:19.343Z,15.00
2022-10-14T20:25:47.050Z,15.20
2022-10-14T20:28:15.552Z,15.40
2022-10-14T20:30:42.949Z,15.60
2022-10-14T20:33:09.895Z,15.70
2022-10-14T20:35:37.181Z,15.90
2022-10-14T20:38:04.522Z,15.90
2022-10-14T20:40:31.430Z,15.90
2022-10-14T20:42:58.317Z,15.90
2022-10-14T20:45:25.234Z,16.00
2022-10-14T20:47:53.828Z,16.00
2022-10-14T20:50:20.819Z,16.10
2022-10-14T20:52:47.746Z,16.10
2022-10-14T20:55:14.697Z,16.20
2022-10-14T20:57:41.506Z,16.20
2022-10-14T21:00:08.782Z,16.20
2022-10-14T21:02:35.958Z,16.20
2022-10-14T21:05:02.873Z,16.20
2022-10-14T21:07:29.668Z,16.20
2022-10-14T21:09:56.493Z,16.20
2022-10-14T21:12:23.830Z,16.20
2022-10-14T21:14:50.923Z,16.20
2022-10-14T21:17:17.756Z,16.20
2022-10-14T21:19:44.609Z,16.20
2022-10-14T21:22:11.515Z,16.20
2022-10-14T21:24:41.258Z,16.20
2022-10-14T21:27:08.176Z,16.20
2022-10-14T21:29:35.145Z,16.20
2022-10-14T21:32:02.830Z,16.20
2022-10-14T21:34:30.362Z,16.20
2022-10-14T21:36:57.444Z,16.30
2022-10-14T21:39:24.562Z,16.30
2022-10-14T21:41:51.470Z,16.30
2022-10-14T21:44:19.919Z,16.30
2022-10-14T21:46:47.069Z,16.30
2022-10-14T21:49:13.907Z,16.30
2022-10-14T21:51:40.926Z,16.30
2022-10-14T21:54:11.002Z,16.30
2022-10-14T21:56:37.907Z,16.20
2022-10-14T21:59:04.773Z,16.20
2022-10-14T22:01:31.685Z,16.20
2022-10-14T22:04:04.034Z,16.20
2022-10-14T22:06:31.866Z,16.20
2022-10-14T22:08:59.910Z,16.30
2022-10-14T22:11:28.188Z,16.20
2022-10-14T22:13:55.621Z,16.20
2022-10-14T22:16:22.588Z,16.20
2022-10-14T22:18:50.815Z,16.20
2022-10-14T22:21:21.695Z,16.20
2022-10-14T22:23:49.204Z,16.20
2022-10-14T22:26:17.117Z,16.20
2022-10-14T22:28:44.245Z,16.20
2022-10-14T22:31:13.234Z,16.20
2022-10-14T22:33:40.636Z,16.20
2022-10-14T22:36:08.272Z,16.20
2022-10-14T22:38:35.648Z,16.20
2022-10-14T22:41:03.412Z,16.20
2022-10-14T22:43:30.311Z,16.20
2022-10-14T22:46:07.713Z,16.20
2022-10-14T22:48:35.056Z,16.20
2022-10-14T22:51:06.549Z,16.20
2022-10-14T22:53:33.835Z,16.10
2022-10-14T22:56:00.651Z,16.10
2022-10-14T22:58:27.667Z,16.10
2022-10-14T23:00:54.505Z,16.10
2022-10-14T23:03:21.458Z,16.10
2022-10-14T23:05:48.534Z,16.10
2022-10-14T23:08:15.487Z,16.10
2022-10-14T23:10:42.952Z,16.10
2022-10-14T23:13:10.390Z,16.10
2022-10-14T23:15:37.285Z,16.10
2022-10-14T23:18:04.467Z,16.10
2022-10-14T23:20:32.974Z,16.10
2022-10-14T23:22:59.811Z,16.10
2022-10-14T23:25:27.000Z,16.10
2022-10-14T23:27:53.893Z,16.00
2022-10-14T23:30:20.717Z,16.00
2022-10-14T23:32:47.579Z,16.10
2022-10-14T23:35:14.532Z,16.00
2022-10-14T23:37:41.353Z,16.00
2022-10-14T23:40:08.697Z,16.00
2022-10-14T23:42:35.526Z,16.00
2022-10-14T23:45:02.408Z,15.90
2022-10-14T23:47:29.313Z,15.90
2022-10-14T23:49:56.165Z,15.90
2022-10-14T23:52:23.219Z,15.90
2022-10-14T23:54:50.101Z,15.90
2022-10-14T23:57:21.069Z,15.90
2022-10-14T23:59:50.644Z,15.90
